Time,TemperatureF,DewpointF,PressureIn,WindDirection,WindDirectionDegrees,WindSpeedMPH,WindSpeedGustMPH,Humidity,HourlyPrecipIn,Conditions,Clouds,dailyrainin,SolarRadiationWatts/m^2,SoftwareType,DateUTC
2013-01-23 00:02:00,22.5,0.7,30.22,North,10,7.0,10.0,38,0.00,,,0.00,0.0,meteohub,2013-01-23 05:02:00,
2013-01-23 00:05:00,22.5,1.2,30.22,North,11,6.0,10.0,39,0.00,,,0.00,0.0,meteohub,2013-01-23 05:05:00,
2013-01-23 00:07:00,22.5,1.2,30.22,NNE,24,5.0,10.0,39,0.00,,,0.00,0.0,meteohub,2013-01-23 05:07:00,
2013-01-23 00:12:00,22.5,1.2,30.22,North,9,7.0,9.0,39,0.00,,,0.00,0.0,meteohub,2013-01-23 05:12:00,
2013-01-23 00:14:00,22.5,1.2,30.21,NNE,13,7.0,9.0,39,0.00,,,0.00,0.0,meteohub,2013-01-23 05:14:00,
2013-01-23 00:20:00,22.6,1.4,30.22,NNE,14,5.0,11.0,39,0.00,,,0.00,0.0,meteohub,2013-01-23 05:20:00,
2013-01-23 00:27:00,22.6,1.4,30.22,NNE,19,4.0,10.0,39,0.00,,,0.00,0.0,meteohub,2013-01-23 05:27:00,
2013-01-23 00:32:00,22.6,1.4,30.22,North,0,4.0,10.0,39,0.00,,,0.00,0.0,meteohub,2013-01-23 05:32:00,
2013-01-23 00:39:00,22.8,2.7,30.22,North,5,5.0,10.0,41,0.00,,,0.00,0.0,meteohub,2013-01-23 05:39:00,
2013-01-23 00:45:00,22.8,2.1,30.22,NNE,19,6.0,9.0,40,0.00,,,0.00,0.0,meteohub,2013-01-23 05:45:00,
2013-01-23 00:51:00,22.8,1.0,30.22,North,11,5.0,10.0,38,0.00,,,0.00,0.0,meteohub,2013-01-23 05:51:00,
2013-01-23 00:57:00,22.8,1.6,30.22,NNW,331,3.0,10.0,39,0.00,,,0.00,0.0,meteohub,2013-01-23 05:57:00,
2013-01-23 01:02:00,22.8,1.6,30.23,NNW,331,3.0,10.0,39,0.00,,,0.00,0.0,meteohub,2013-01-23 06:02:00,
2013-01-23 01:07:00,22.8,1.6,30.23,North,-999,-999.0,8.0,39,0.00,,,0.00,0.0,meteohub,2013-01-23 06:07:00,
2013-01-23 01:18:00,22.3,1.6,30.22,North,-999,-999.0,-999.0,40,0.00,,,0.00,,meteohub,2013-01-23 06:18:00,
2013-01-23 01:24:00,22.3,2.1,30.22,North,355,5.0,-999.0,41,0.00,,,0.00,0.0,meteohub,2013-01-23 06:24:00,
2013-01-23 01:30:00,22.3,2.1,30.22,NNE,24,7.0,8.0,41,0.00,,,0.00,0.0,meteohub,2013-01-23 06:30:00,
2013-01-23 01:37:00,22.3,2.1,30.22,NNE,15,6.0,8.0,41,0.00,,,0.00,0.0,meteohub,2013-01-23 06:37:00,
2013-01-23 01:42:00,22.1,1.9,30.23,NW,311,4.0,9.0,41,0.00,,,0.00,0.0,meteohub,2013-01-23 06:42:00,
2013-01-23 01:47:00,22.3,2.1,30.23,NNE,26,7.0,9.0,41,0.00,,,0.00,0.0,meteohub,2013-01-23 06:47:00,
2013-01-23 01:52:00,22.3,2.1,30.23,NNE,14,5.0,10.0,41,0.00,,,0.00,0.0,meteohub,2013-01-23 06:52:00,
2013-01-23 01:57:00,22.3,1.6,30.23,NNE,30,1.0,11.0,40,0.00,,,0.00,0.0,meteohub,2013-01-23 06:57:00,
2013-01-23 02:02:00,22.3,2.1,30.23,NNE,28,4.0,11.0,41,0.00,,,0.00,0.0,meteohub,2013-01-23 07:02:00,
2013-01-23 02:07:00,22.3,2.1,30.23,NNE,25,5.0,11.0,41,0.00,,,0.00,0.0,meteohub,2013-01-23 07:07:00,
2013-01-23 02:12:00,22.3,2.7,30.24,North,355,2.0,10.0,42,0.00,,,0.00,0.0,meteohub,2013-01-23 07:12:00,
2013-01-23 02:19:00,22.1,2.5,30.24,North,0,6.0,10.0,42,0.00,,,0.00,0.0,meteohub,2013-01-23 07:19:00,
2013-01-23 02:25:00,22.1,1.9,30.23,North,355,5.0,10.0,41,0.00,,,0.00,0.0,meteohub,2013-01-23 07:25:00,
2013-01-23 02:31:00,22.1,2.5,30.23,North,0,7.0,9.0,42,0.00,,,0.00,0.0,meteohub,2013-01-23 07:31:00,
2013-01-23 02:37:00,22.1,2.5,30.24,NNE,24,6.0,10.0,42,0.00,,,0.00,0.0,meteohub,2013-01-23 07:37:00,
2013-01-23 02:42:00,22.1,2.5,30.24,NNE,17,7.0,10.0,42,0.00,,,0.00,0.0,meteohub,2013-01-23 07:42:00,
2013-01-23 02:49:00,21.9,2.8,30.24,NNE,15,6.0,9.0,43,0.00,,,0.00,0.0,meteohub,2013-01-23 07:49:00,
2013-01-23 02:55:00,21.9,2.8,30.24,NNE,14,9.0,10.0,43,0.00,,,0.00,0.0,meteohub,2013-01-23 07:55:00,
2013-01-23 03:01:00,22.1,3.0,30.24,NE,38,7.0,10.0,43,0.00,,,0.00,0.0,meteohub,2013-01-23 08:01:00,
2013-01-23 03:07:00,22.1,3.0,30.24,NNE,13,5.0,13.0,43,0.00,,,0.00,0.0,meteohub,2013-01-23 08:07:00,
2013-01-23 03:12:00,21.9,3.4,30.24,NNE,13,7.0,13.0,44,0.00,,,0.00,0.0,meteohub,2013-01-23 08:12:00,
2013-01-23 03:17:00,21.9,3.4,30.24,North,5,8.0,13.0,44,0.00,,,0.00,0.0,meteohub,2013-01-23 08:17:00,
2013-01-23 03:22:00,21.9,2.8,30.24,North,5,8.0,12.0,43,0.00,,,0.00,0.0,meteohub,2013-01-23 08:22:00,
2013-01-23 03:28:00,21.9,3.4,30.24,North,11,7.0,12.0,44,0.00,,,0.00,0.0,meteohub,2013-01-23 08:28:00,
2013-01-23 03:34:00,21.9,3.4,30.24,NNE,18,7.0,11.0,44,0.00,,,0.00,0.0,meteohub,2013-01-23 08:34:00,
2013-01-23 03:40:00,21.9,3.4,30.24,North,355,5.0,13.0,44,0.00,,,0.00,0.0,meteohub,2013-01-23 08:40:00,
2013-01-23 03:46:00,21.9,3.4,30.24,North,5,6.0,13.0,44,0.00,,,0.00,0.0,meteohub,2013-01-23 08:46:00,
2013-01-23 03:52:00,21.9,3.4,30.24,North,5,7.0,12.0,44,0.00,,,0.00,0.0,meteohub,2013-01-23 08:52:00,
2013-01-23 03:57:00,22.1,3.6,30.24,NNE,18,8.0,11.0,44,0.00,,,0.00,0.0,meteohub,2013-01-23 08:57:00,
2013-01-23 04:02:00,22.1,3.6,30.24,North,5,7.0,11.0,44,0.00,,,0.00,0.0,meteohub,2013-01-23 09:02:00,
2013-01-23 04:07:00,22.1,3.9,30.24,North,355,8.0,11.0,45,0.00,,,0.00,0.0,meteohub,2013-01-23 09:07:00,
2013-01-23 04:14:00,22.1,3.9,30.23,North,5,9.0,11.0,45,0.00,,,0.00,0.0,meteohub,2013-01-23 09:14:00,
2013-01-23 04:20:00,22.3,4.1,30.24,North,5,9.0,11.0,45,0.00,,,0.00,0.0,meteohub,2013-01-23 09:20:00,
2013-01-23 04:27:00,22.3,4.1,30.24,NNW,348,8.0,12.0,45,0.00,,,0.00,0.0,meteohub,2013-01-23 09:27:00,
2013-01-23 04:32:00,22.3,4.1,30.24,North,350,7.0,12.0,45,0.00,,,0.00,0.0,meteohub,2013-01-23 09:32:00,
2013-01-23 04:39:00,22.3,4.1,30.24,North,9,6.0,12.0,45,0.00,,,0.00,0.0,meteohub,2013-01-23 09:39:00,
2013-01-23 04:45:00,22.3,4.1,30.24,NNW,344,6.0,12.0,45,0.00,,,0.00,0.0,meteohub,2013-01-23 09:45:00,
2013-01-23 04:51:00,22.1,4.5,30.24,North,0,4.0,11.0,46,0.00,,,0.00,0.0,meteohub,2013-01-23 09:51:00,
2013-01-23 04:57:00,22.1,5.0,30.25,NNE,23,4.0,12.0,47,0.00,,,0.00,0.0,meteohub,2013-01-23 09:57:00,
2013-01-23 05:03:00,21.9,4.8,30.25,NNE,13,8.0,10.0,47,0.00,,,0.00,0.0,meteohub,2013-01-23 10:03:00,
2013-01-23 05:09:00,21.9,5.2,30.24,North,5,6.0,10.0,48,0.00,,,0.00,0.0,meteohub,2013-01-23 10:09:00,
2013-01-23 05:16:00,22.1,5.0,30.25,North,5,7.0,11.0,47,0.00,,,0.00,0.0,meteohub,2013-01-23 10:16:00,
2013-01-23 05:22:00,22.3,5.2,30.25,NNE,17,7.0,11.0,47,0.00,,,0.00,0.0,meteohub,2013-01-23 10:22:00,
2013-01-23 05:27:00,22.1,5.0,30.25,North,9,5.0,11.0,47,0.00,,,0.00,0.0,meteohub,2013-01-23 10:27:00,
2013-01-23 05:34:00,22.3,5.5,30.25,North,11,8.0,10.0,48,0.00,,,0.00,0.0,meteohub,2013-01-23 10:34:00,
2013-01-23 05:40:00,22.3,5.2,30.25,North,349,5.0,10.0,47,0.00,,,0.00,0.0,meteohub,2013-01-23 10:40:00,
2013-01-23 05:46:00,22.1,5.4,30.25,North,9,7.0,10.0,48,0.00,,,0.00,0.0,meteohub,2013-01-23 10:46:00,
2013-01-23 05:52:00,22.1,5.4,30.25,North,9,8.0,10.0,48,0.00,,,0.00,0.0,meteohub,2013-01-23 10:52:00,
2013-01-23 05:57:00,22.3,5.2,30.25,NNE,17,5.0,11.0,47,0.00,,,0.00,0.0,meteohub,2013-01-23 10:57:00,
2013-01-23 06:04:00,22.3,5.5,30.26,North,9,7.0,11.0,48,0.00,,,0.00,0.0,meteohub,2013-01-23 11:04:00,
2013-01-23 06:10:00,22.3,5.5,30.26,NNE,14,7.0,10.0,48,0.00,,,0.00,0.0,meteohub,2013-01-23 11:10:00,
2013-01-23 06:17:00,22.3,6.1,30.26,North,355,6.0,10.0,49,0.00,,,0.00,0.0,meteohub,2013-01-23 11:17:00,
2013-01-23 06:22:00,22.3,6.1,30.26,North,355,7.0,10.0,49,0.00,,,0.00,0.0,meteohub,2013-01-23 11:22:00,
2013-01-23 06:27:00,22.3,6.1,30.26,NNE,13,5.0,11.0,49,0.00,,,0.00,0.0,meteohub,2013-01-23 11:27:00,
2013-01-23 06:32:00,22.3,6.4,30.26,NNE,17,7.0,11.0,50,0.00,,,0.00,0.0,meteohub,2013-01-23 11:32:00,
2013-01-23 06:38:00,22.3,6.1,30.26,NNE,12,6.0,11.0,49,0.00,,,0.00,0.0,meteohub,2013-01-23 11:38:00,
2013-01-23 06:44:00,22.3,7.0,30.27,NNE,12,7.0,9.0,51,0.00,,,0.00,0.0,meteohub,2013-01-23 11:44:00,
2013-01-23 06:50:00,22.3,6.4,30.27,North,5,6.0,8.0,50,0.00,,,0.00,0.0,meteohub,2013-01-23 11:50:00,
2013-01-23 06:56:00,22.3,7.3,30.27,NNE,13,7.0,9.0,52,0.00,,,0.00,0.0,meteohub,2013-01-23 11:56:00,
2013-01-23 07:02:00,22.1,7.2,30.27,NNE,13,7.0,9.0,52,0.00,,,0.00,0.0,meteohub,2013-01-23 12:02:00,
2013-01-23 07:07:00,22.3,7.3,30.27,NNE,17,5.0,9.0,52,0.00,,,0.00,0.0,meteohub,2013-01-23 12:07:00,
2013-01-23 07:12:00,22.3,7.7,30.27,North,11,5.0,9.0,53,0.00,,,0.00,0.0,meteohub,2013-01-23 12:12:00,
2013-01-23 07:17:00,22.3,7.7,30.27,NNE,12,7.0,9.0,53,0.00,,,0.00,0.0,meteohub,2013-01-23 12:17:00,
2013-01-23 07:22:00,22.5,7.9,30.28,North,5,5.0,9.0,53,0.00,,,0.00,0.0,meteohub,2013-01-23 12:22:00,
2013-01-23 07:29:00,22.5,7.9,30.28,North,0,5.0,9.0,53,0.00,,,0.00,0.0,meteohub,2013-01-23 12:29:00,
2013-01-23 07:35:00,22.5,7.9,30.27,North,5,7.0,9.0,53,0.00,,,0.00,5.0,meteohub,2013-01-23 12:35:00,
2013-01-23 07:41:00,22.5,7.5,30.28,NNE,13,6.0,9.0,52,0.00,,,0.00,11.0,meteohub,2013-01-23 12:41:00,
2013-01-23 07:47:00,22.6,8.1,30.28,NNE,16,6.0,9.0,53,0.00,,,0.00,14.0,meteohub,2013-01-23 12:47:00,
2013-01-23 07:53:00,22.8,8.2,30.28,NNE,15,5.0,8.0,53,0.00,,,0.00,18.0,meteohub,2013-01-23 12:53:00,
2013-01-23 08:00:00,23.0,8.1,30.28,North,5,5.0,8.0,52,0.00,,,0.00,11.0,meteohub,2013-01-23 13:00:00,
2013-01-23 08:06:00,22.8,7.9,30.28,NNE,13,3.0,7.0,52,0.00,,,0.00,26.0,meteohub,2013-01-23 13:06:00,
2013-01-23 08:12:00,23.2,8.6,30.28,NNE,13,5.0,7.0,53,0.00,,,0.00,67.0,meteohub,2013-01-23 13:12:00,
2013-01-23 08:17:00,23.7,8.6,30.28,NNE,12,5.0,8.0,52,0.00,,,0.00,79.0,meteohub,2013-01-23 13:17:00,
2013-01-23 08:22:00,24.3,9.1,30.28,NNE,19,4.0,8.0,52,0.00,,,0.00,97.0,meteohub,2013-01-23 13:22:00,
2013-01-23 08:27:00,24.6,9.1,30.28,NNE,13,7.0,8.0,51,0.00,,,0.00,114.0,meteohub,2013-01-23 13:27:00,
2013-01-23 08:32:00,25.0,9.3,30.28,North,0,4.0,8.0,51,0.00,,,0.00,132.0,meteohub,2013-01-23 13:32:00,
2013-01-23 08:37:00,25.2,9.5,30.29,NNE,13,4.0,8.0,51,0.00,,,0.00,151.0,meteohub,2013-01-23 13:37:00,
2013-01-23 08:42:00,25.5,9.5,30.28,North,5,4.0,8.0,50,0.00,,,0.00,163.0,meteohub,2013-01-23 13:42:00,
2013-01-23 08:47:00,25.7,9.1,30.28,North,9,3.0,8.0,49,0.00,,,0.00,186.0,meteohub,2013-01-23 13:47:00,
2013-01-23 08:52:00,25.9,9.0,30.29,North,5,4.0,7.0,48,0.00,,,0.00,200.0,meteohub,2013-01-23 13:52:00,
2013-01-23 08:57:00,26.1,9.5,30.29,NNE,13,4.0,9.0,49,0.00,,,0.00,197.0,meteohub,2013-01-23 13:57:00,
2013-01-23 09:02:00,26.4,9.9,30.29,North,355,2.0,9.0,49,0.00,,,0.00,232.0,meteohub,2013-01-23 14:02:00,
2013-01-23 09:09:00,27.1,10.0,30.29,NNE,14,2.0,9.0,48,0.00,,,0.00,255.0,meteohub,2013-01-23 14:09:00,
2013-01-23 09:15:00,27.9,10.8,30.30,NNE,13,0.0,5.0,48,0.00,,,0.00,271.0,meteohub,2013-01-23 14:15:00,
2013-01-23 09:21:00,28.6,10.9,30.30,NNE,15,1.0,5.0,47,0.00,,,0.00,290.0,meteohub,2013-01-23 14:21:00,
2013-01-23 09:27:00,29.1,10.4,30.30,North,0,0.0,3.0,45,0.00,,,0.00,306.0,meteohub,2013-01-23 14:27:00,
2013-01-23 09:32:00,29.3,10.6,30.30,SSE,155,2.0,4.0,45,0.00,,,0.00,46.0,meteohub,2013-01-23 14:32:00,
2013-01-23 09:37:00,29.3,10.6,30.30,East,86,0.0,5.0,45,0.00,,,0.00,264.0,meteohub,2013-01-23 14:37:00,
2013-01-23 09:42:00,29.3,11.1,30.30,NNE,16,0.0,5.0,46,0.00,,,0.00,241.0,meteohub,2013-01-23 14:42:00,
2013-01-23 09:47:00,29.7,10.9,30.30,NE,48,3.0,5.0,45,0.00,,,0.00,355.0,meteohub,2013-01-23 14:47:00,
2013-01-23 09:52:00,29.8,10.6,30.30,NE,34,1.0,3.0,44,0.00,,,0.00,380.0,meteohub,2013-01-23 14:52:00,
2013-01-23 09:57:00,29.8,11.1,30.30,SSW,213,2.0,5.0,45,0.00,,,0.00,392.0,meteohub,2013-01-23 14:57:00,
2013-01-23 10:02:00,29.8,11.1,30.30,NNE,17,3.0,5.0,45,0.00,,,0.00,380.0,meteohub,2013-01-23 15:02:00,
2013-01-23 10:07:00,29.8,11.1,30.30,NNE,18,4.0,5.0,45,0.00,,,0.00,420.0,meteohub,2013-01-23 15:07:00,
2013-01-23 10:12:00,29.7,10.9,30.30,ENE,63,0.0,5.0,45,0.00,,,0.00,436.0,meteohub,2013-01-23 15:12:00,
2013-01-23 10:17:00,29.7,11.5,30.30,North,11,1.0,5.0,46,0.00,,,0.00,443.0,meteohub,2013-01-23 15:17:00,
2013-01-23 10:22:00,30.4,11.7,30.30,ENE,71,1.0,7.0,45,0.00,,,0.00,468.0,meteohub,2013-01-23 15:22:00,
2013-01-23 10:27:00,30.9,12.0,30.31,ESE,110,1.0,7.0,45,0.00,,,0.00,469.0,meteohub,2013-01-23 15:27:00,
2013-01-23 10:32:00,31.3,11.8,30.31,South,183,2.0,6.0,44,0.00,,,0.00,482.0,meteohub,2013-01-23 15:32:00,
2013-01-23 10:37:00,31.3,11.8,30.31,ENE,74,0.0,5.0,44,0.00,,,0.00,492.0,meteohub,2013-01-23 15:37:00,
2013-01-23 10:42:00,31.6,13.3,30.31,SE,142,2.0,6.0,46,0.00,,,0.00,504.0,meteohub,2013-01-23 15:42:00,
2013-01-23 10:47:00,32.7,12.7,30.31,SE,132,0.0,6.0,43,0.00,,,0.00,515.0,meteohub,2013-01-23 15:47:00,
2013-01-23 10:52:00,33.4,12.7,30.31,ESE,103,0.0,7.0,42,0.00,,,0.00,527.0,meteohub,2013-01-23 15:52:00,
2013-01-23 10:57:00,33.8,13.1,30.31,SSE,157,5.0,7.0,42,0.00,,,0.00,534.0,meteohub,2013-01-23 15:57:00,
2013-01-23 11:02:00,34.0,13.3,30.31,SSE,155,0.0,7.0,42,0.00,,,0.00,547.0,meteohub,2013-01-23 16:02:00,
2013-01-23 11:07:00,34.2,12.9,30.31,ESE,115,0.0,7.0,41,0.00,,,0.00,557.0,meteohub,2013-01-23 16:07:00,
2013-01-23 11:12:00,34.3,13.1,30.31,East,101,0.0,7.0,41,0.00,,,0.00,563.0,meteohub,2013-01-23 16:12:00,
2013-01-23 11:17:00,34.7,14.5,30.30,SW,234,1.0,5.0,43,0.00,,,0.00,577.0,meteohub,2013-01-23 16:17:00,
2013-01-23 11:22:00,35.1,15.3,30.30,NNW,333,4.0,7.0,44,0.00,,,0.00,578.0,meteohub,2013-01-23 16:22:00,
2013-01-23 11:27:00,35.2,14.4,30.30,NNE,22,0.0,7.0,42,0.00,,,0.00,587.0,meteohub,2013-01-23 16:27:00,
2013-01-23 11:32:00,35.4,14.5,30.29,WSW,257,0.0,7.0,42,0.00,,,0.00,594.0,meteohub,2013-01-23 16:32:00,
2013-01-23 11:37:00,35.2,14.4,30.29,NNE,24,0.0,6.0,42,0.00,,,0.00,603.0,meteohub,2013-01-23 16:37:00,
2013-01-23 11:42:00,35.4,15.6,30.29,South,182,1.0,5.0,44,0.00,,,0.00,610.0,meteohub,2013-01-23 16:42:00,
2013-01-23 11:47:00,36.0,15.6,30.28,NNE,30,0.0,7.0,43,0.00,,,0.00,613.0,meteohub,2013-01-23 16:47:00,
2013-01-23 11:52:00,36.7,16.9,30.28,ESE,114,0.0,7.0,44,0.00,,,0.00,624.0,meteohub,2013-01-23 16:52:00,
2013-01-23 11:57:00,36.7,15.3,30.27,East,92,1.0,7.0,41,0.00,,,0.00,626.0,meteohub,2013-01-23 16:57:00,
2013-01-23 12:02:00,37.0,16.2,30.28,ESE,114,0.0,7.0,42,0.00,,,0.00,631.0,meteohub,2013-01-23 17:02:00,
2013-01-23 12:07:00,37.4,15.8,30.27,East,87,4.0,7.0,41,0.00,,,0.00,636.0,meteohub,2013-01-23 17:07:00,
2013-01-23 12:12:00,37.2,15.6,30.27,SE,144,4.0,7.0,41,0.00,,,0.00,640.0,meteohub,2013-01-23 17:12:00,
2013-01-23 12:17:00,37.4,16.9,30.27,ENE,78,0.0,6.0,43,0.00,,,0.00,642.0,meteohub,2013-01-23 17:17:00,
2013-01-23 12:22:00,37.8,16.2,30.26,SE,139,10.0,10.0,41,0.00,,,0.00,647.0,meteohub,2013-01-23 17:22:00,
2013-01-23 12:27:00,37.8,15.6,30.25,East,90,0.0,11.0,40,0.00,,,0.00,647.0,meteohub,2013-01-23 17:27:00,
2013-01-23 12:32:00,38.1,17.1,30.25,South,169,5.0,11.0,42,0.00,,,0.00,652.0,meteohub,2013-01-23 17:32:00,
2013-01-23 12:37:00,38.5,16.3,30.25,South,185,1.0,11.0,40,0.00,,,0.00,654.0,meteohub,2013-01-23 17:37:00,
2013-01-23 12:42:00,38.7,16.3,30.24,SSE,156,4.0,7.0,40,0.00,,,0.00,657.0,meteohub,2013-01-23 17:42:00,
2013-01-23 12:47:00,39.0,16.7,30.24,South,169,2.0,8.0,40,0.00,,,0.00,657.0,meteohub,2013-01-23 17:47:00,
2013-01-23 12:52:00,39.0,16.7,30.23,SSE,159,5.0,9.0,40,0.00,,,0.00,657.0,meteohub,2013-01-23 17:52:00,
2013-01-23 12:57:00,39.4,17.1,30.22,SE,132,1.0,9.0,40,0.00,,,0.00,654.0,meteohub,2013-01-23 17:57:00,
2013-01-23 13:02:00,39.6,17.2,30.22,SSE,168,2.0,9.0,40,0.00,,,0.00,654.0,meteohub,2013-01-23 18:02:00,
2013-01-23 13:07:00,39.7,18.5,30.22,East,97,6.0,9.0,42,0.00,,,0.00,656.0,meteohub,2013-01-23 18:07:00,
2013-01-23 13:12:00,40.3,18.0,30.21,SE,143,1.0,9.0,40,0.00,,,0.00,654.0,meteohub,2013-01-23 18:12:00,
2013-01-23 13:17:00,40.3,18.0,30.21,SSE,157,2.0,9.0,40,0.00,,,0.00,652.0,meteohub,2013-01-23 18:17:00,
2013-01-23 13:22:00,40.5,18.7,30.21,South,183,3.0,9.0,41,0.00,,,0.00,494.0,meteohub,2013-01-23 18:22:00,
2013-01-23 13:27:00,40.5,18.7,30.20,East,83,2.0,9.0,41,0.00,,,0.00,517.0,meteohub,2013-01-23 18:27:00,
2013-01-23 13:32:00,40.8,18.3,30.20,SSE,161,6.0,10.0,40,0.00,,,0.00,522.0,meteohub,2013-01-23 18:32:00,
2013-01-23 13:37:00,41.2,18.1,30.20,SSE,153,2.0,10.0,39,0.00,,,0.00,531.0,meteohub,2013-01-23 18:37:00,
2013-01-23 13:42:00,41.4,18.9,30.19,SSE,156,6.0,10.0,40,0.00,,,0.00,520.0,meteohub,2013-01-23 18:42:00,
2013-01-23 13:47:00,41.2,19.2,30.19,SE,130,0.0,9.0,41,0.00,,,0.00,272.0,meteohub,2013-01-23 18:47:00,
2013-01-23 13:52:00,41.2,18.7,30.19,SSE,164,2.0,9.0,40,0.00,,,0.00,281.0,meteohub,2013-01-23 18:52:00,
2013-01-23 13:57:00,41.2,18.7,30.19,SSE,161,0.0,9.0,40,0.00,,,0.00,431.0,meteohub,2013-01-23 18:57:00,
2013-01-23 14:02:00,41.2,19.2,30.19,East,87,1.0,9.0,41,0.00,,,0.00,250.0,meteohub,2013-01-23 19:02:00,
2013-01-23 14:07:00,41.7,19.8,30.19,South,182,1.0,9.0,41,0.00,,,0.00,492.0,meteohub,2013-01-23 19:07:00,
2013-01-23 14:12:00,41.7,19.2,30.19,ESE,113,0.0,8.0,40,0.00,,,0.00,367.0,meteohub,2013-01-23 19:12:00,
2013-01-23 14:17:00,41.7,20.3,30.19,SE,143,7.0,9.0,42,0.00,,,0.00,373.0,meteohub,2013-01-23 19:17:00,
2013-01-23 14:22:00,41.7,19.2,30.19,South,171,5.0,9.0,40,0.00,,,0.00,468.0,meteohub,2013-01-23 19:22:00,
2013-01-23 14:27:00,41.5,19.6,30.19,South,180,3.0,9.0,41,0.00,,,0.00,380.0,meteohub,2013-01-23 19:27:00,
2013-01-23 14:32:00,41.4,19.4,30.18,East,96,4.0,9.0,41,0.00,,,0.00,258.0,meteohub,2013-01-23 19:32:00,
2013-01-23 14:37:00,42.1,21.2,30.18,SE,128,4.0,9.0,43,0.00,,,0.00,279.0,meteohub,2013-01-23 19:37:00,
2013-01-23 14:42:00,42.4,20.5,30.18,ESE,121,4.0,9.0,41,0.00,,,0.00,385.0,meteohub,2013-01-23 19:42:00,
2013-01-23 14:47:00,42.3,20.8,30.18,SSE,153,4.0,9.0,42,0.00,,,0.00,332.0,meteohub,2013-01-23 19:47:00,
2013-01-23 14:52:00,42.3,21.4,30.17,South,171,4.0,9.0,43,0.00,,,0.00,197.0,meteohub,2013-01-23 19:52:00,
2013-01-23 14:57:00,42.4,21.0,30.17,SW,236,1.0,8.0,42,0.00,,,0.00,135.0,meteohub,2013-01-23 19:57:00,
2013-01-23 15:02:00,42.6,21.2,30.18,SE,130,4.0,9.0,42,0.00,,,0.00,47.0,meteohub,2013-01-23 20:02:00,
2013-01-23 15:07:00,42.1,21.2,30.17,SSE,155,4.0,9.0,43,0.00,,,0.00,111.0,meteohub,2013-01-23 20:07:00,
2013-01-23 15:12:00,41.9,21.6,30.18,East,88,0.0,9.0,44,0.00,,,0.00,100.0,meteohub,2013-01-23 20:12:00,
2013-01-23 15:17:00,42.3,22.5,30.18,SSE,165,1.0,9.0,45,0.00,,,0.00,149.0,meteohub,2013-01-23 20:17:00,
2013-01-23 15:22:00,42.3,21.4,30.17,SSE,161,2.0,6.0,43,0.00,,,0.00,49.0,meteohub,2013-01-23 20:22:00,
2013-01-23 15:27:00,42.1,22.3,30.17,South,171,2.0,8.0,45,0.00,,,0.00,223.0,meteohub,2013-01-23 20:27:00,
2013-01-23 15:32:00,42.1,22.3,30.17,ESE,112,0.0,8.0,45,0.00,,,0.00,44.0,meteohub,2013-01-23 20:32:00,
2013-01-23 15:37:00,42.1,22.3,30.17,East,84,0.0,8.0,45,0.00,,,0.00,232.0,meteohub,2013-01-23 20:37:00,
2013-01-23 15:42:00,42.3,22.5,30.17,SE,144,6.0,8.0,45,0.00,,,0.00,188.0,meteohub,2013-01-23 20:42:00,
2013-01-23 15:47:00,42.4,23.2,30.17,SE,146,2.0,7.0,46,0.00,,,0.00,77.0,meteohub,2013-01-23 20:47:00,
2013-01-23 15:52:00,42.6,23.4,30.16,SSE,158,4.0,8.0,46,0.00,,,0.00,77.0,meteohub,2013-01-23 20:52:00,
2013-01-23 15:57:00,43.0,23.2,30.16,SE,128,0.0,8.0,45,0.00,,,0.00,69.0,meteohub,2013-01-23 20:57:00,
2013-01-23 16:02:00,43.2,23.7,30.16,SSE,153,6.0,8.0,46,0.00,,,0.00,93.0,meteohub,2013-01-23 21:02:00,
2013-01-23 16:07:00,43.3,23.4,30.15,SSE,157,0.0,8.0,45,0.00,,,0.00,70.0,meteohub,2013-01-23 21:07:00,
2013-01-23 16:12:00,43.2,23.7,30.15,South,176,4.0,8.0,46,0.00,,,0.00,39.0,meteohub,2013-01-23 21:12:00,
2013-01-23 16:17:00,43.2,24.8,30.15,SSE,150,0.0,7.0,48,0.00,,,0.00,35.0,meteohub,2013-01-23 21:17:00,
2013-01-23 16:22:00,43.2,23.7,30.15,SSE,153,0.0,7.0,46,0.00,,,0.00,72.0,meteohub,2013-01-23 21:22:00,
2013-01-23 16:27:00,43.0,24.6,30.15,SSE,165,2.0,6.0,48,0.00,,,0.00,47.0,meteohub,2013-01-23 21:27:00,
2013-01-23 16:32:00,43.0,24.1,30.15,South,169,0.0,4.0,47,0.00,,,0.00,46.0,meteohub,2013-01-23 21:32:00,
2013-01-23 16:37:00,43.0,25.2,30.14,SSE,151,4.0,5.0,49,0.00,,,0.00,26.0,meteohub,2013-01-23 21:37:00,
2013-01-23 16:42:00,42.8,24.4,30.14,South,190,2.0,6.0,48,0.00,,,0.00,26.0,meteohub,2013-01-23 21:42:00,
2013-01-23 16:47:00,42.4,25.2,30.14,South,176,1.0,8.0,50,0.00,,,0.00,25.0,meteohub,2013-01-23 21:47:00,
2013-01-23 16:52:00,42.3,24.4,30.14,South,184,2.0,8.0,49,0.00,,,0.00,23.0,meteohub,2013-01-23 21:52:00,
2013-01-23 16:57:00,42.1,25.3,30.14,SSW,202,0.0,8.0,51,0.00,,,0.00,21.0,meteohub,2013-01-23 21:57:00,
2013-01-23 17:02:00,41.5,24.8,30.14,ESE,104,0.0,5.0,51,0.00,,,0.00,21.0,meteohub,2013-01-23 22:02:00,
2013-01-23 17:07:00,41.2,24.8,30.14,NNW,345,0.0,5.0,52,0.00,,,0.00,19.0,meteohub,2013-01-23 22:07:00,
2013-01-23 17:12:00,41.0,25.2,30.14,SSW,192,3.0,4.0,53,0.00,,,0.00,18.0,meteohub,2013-01-23 22:12:00,
2013-01-23 17:17:00,41.0,25.2,30.14,SW,226,0.0,5.0,53,0.00,,,0.00,16.0,meteohub,2013-01-23 22:17:00,
2013-01-23 17:22:00,40.8,25.0,30.14,South,181,0.0,5.0,53,0.00,,,0.00,14.0,meteohub,2013-01-23 22:22:00,
2013-01-23 17:27:00,40.5,25.2,30.14,South,178,0.0,5.0,54,0.00,,,0.00,12.0,meteohub,2013-01-23 22:27:00,
2013-01-23 17:32:00,40.3,25.0,30.14,NW,324,0.0,5.0,54,0.00,,,0.00,11.0,meteohub,2013-01-23 22:32:00,
2013-01-23 17:37:00,40.1,25.2,30.14,NW,320,0.0,7.0,55,0.00,,,0.00,9.0,meteohub,2013-01-23 22:37:00,
2013-01-23 17:42:00,39.7,25.3,30.14,SW,225,0.0,7.0,56,0.00,,,0.00,5.0,meteohub,2013-01-23 22:42:00,
2013-01-23 17:47:00,39.6,25.2,30.14,South,186,0.0,7.0,56,0.00,,,0.00,5.0,meteohub,2013-01-23 22:47:00,
2013-01-23 17:52:00,39.6,25.2,30.14,SW,224,0.0,3.0,56,0.00,,,0.00,0.0,meteohub,2013-01-23 22:52:00,
2013-01-23 17:57:00,39.6,25.2,30.14,SSW,213,0.0,3.0,56,0.00,,,0.00,0.0,meteohub,2013-01-23 22:57:00,
2013-01-23 18:02:00,39.6,25.2,30.14,SW,214,0.0,3.0,56,0.00,,,0.00,0.0,meteohub,2013-01-23 23:02:00,
2013-01-23 18:07:00,39.6,25.2,30.14,SSW,192,0.0,7.0,56,0.00,,,0.00,0.0,meteohub,2013-01-23 23:07:00,
2013-01-23 18:12:00,39.6,25.5,30.13,SSE,167,5.0,7.0,57,0.00,,,0.00,0.0,meteohub,2013-01-23 23:12:00,
2013-01-23 18:17:00,39.6,25.5,30.13,South,188,1.0,7.0,57,0.00,,,0.00,0.0,meteohub,2013-01-23 23:17:00,
2013-01-23 18:22:00,39.6,25.5,30.14,WNW,294,1.0,6.0,57,0.00,,,0.00,0.0,meteohub,2013-01-23 23:22:00,
2013-01-23 18:27:00,39.4,25.3,30.13,South,190,0.0,6.0,57,0.00,,,0.00,0.0,meteohub,2013-01-23 23:27:00,
2013-01-23 18:32:00,39.2,25.2,30.13,SSW,194,1.0,6.0,57,0.00,,,0.00,0.0,meteohub,2013-01-23 23:32:00,
2013-01-23 18:37:00,39.0,25.2,30.13,South,181,3.0,6.0,57,0.00,,,0.00,0.0,meteohub,2013-01-23 23:37:00,
2013-01-23 18:42:00,39.0,25.5,30.13,SSW,213,1.0,5.0,58,0.00,,,0.00,0.0,meteohub,2013-01-23 23:42:00,
2013-01-23 18:47:00,39.0,25.5,30.13,WSW,240,0.0,5.0,58,0.00,,,0.00,0.0,meteohub,2013-01-23 23:47:00,
2013-01-23 18:52:00,38.7,25.5,30.13,South,182,1.0,5.0,59,0.00,,,0.00,0.0,meteohub,2013-01-23 23:52:00,
2013-01-23 18:57:00,38.5,25.3,30.12,South,182,1.0,5.0,59,0.00,,,0.00,0.0,meteohub,2013-01-23 23:57:00,
2013-01-23 19:02:00,38.5,25.3,30.12,SSW,205,1.0,5.0,59,0.00,,,0.00,0.0,meteohub,2013-01-24 00:02:00,
2013-01-23 19:07:00,38.3,25.7,30.12,SSW,206,0.0,5.0,60,0.00,,,0.00,0.0,meteohub,2013-01-24 00:07:00,
2013-01-23 19:12:00,38.3,25.7,30.12,SSW,194,0.0,8.0,60,0.00,,,0.00,0.0,meteohub,2013-01-24 00:12:00,
2013-01-23 19:17:00,38.1,25.9,30.11,SW,232,2.0,8.0,61,0.00,,,0.00,0.0,meteohub,2013-01-24 00:17:00,
2013-01-23 19:22:00,38.1,25.9,30.11,SSE,167,6.0,8.0,61,0.00,,,0.00,0.0,meteohub,2013-01-24 00:22:00,
2013-01-23 19:27:00,37.9,26.1,30.11,SSW,194,1.0,8.0,62,0.00,,,0.00,0.0,meteohub,2013-01-24 00:27:00,
2013-01-23 19:32:00,37.9,26.4,30.12,WSW,245,0.0,9.0,63,0.00,,,0.00,0.0,meteohub,2013-01-24 00:32:00,
2013-01-23 19:37:00,37.8,26.2,30.11,SSE,159,7.0,11.0,63,0.00,,,0.00,0.0,meteohub,2013-01-24 00:37:00,
2013-01-23 19:42:00,37.6,26.1,30.11,South,190,1.0,11.0,63,0.00,,,0.00,0.0,meteohub,2013-01-24 00:42:00,
2013-01-23 19:49:00,37.4,26.4,30.11,South,173,5.0,11.0,64,0.00,,,0.00,0.0,meteohub,2013-01-24 00:49:00,
2013-01-23 19:55:00,37.2,26.2,30.10,SSW,213,0.0,11.0,64,0.00,,,0.00,0.0,meteohub,2013-01-24 00:55:00,
2013-01-23 20:01:00,37.2,26.6,30.10,South,186,2.0,11.0,65,0.00,,,0.00,0.0,meteohub,2013-01-24 01:01:00,
2013-01-23 20:07:00,36.9,26.2,30.10,SW,226,4.0,11.0,65,0.00,,,0.00,0.0,meteohub,2013-01-24 01:07:00,
2013-01-23 20:12:00,37.0,26.4,30.09,WSW,248,2.0,11.0,65,0.00,,,0.00,0.0,meteohub,2013-01-24 01:12:00,
2013-01-23 20:17:00,36.9,26.2,30.10,South,174,7.0,11.0,65,0.00,,,0.00,0.0,meteohub,2013-01-24 01:17:00,
2013-01-23 20:22:00,36.7,26.4,30.10,SSW,207,1.0,11.0,66,0.00,,,0.00,0.0,meteohub,2013-01-24 01:22:00,
2013-01-23 20:27:00,36.3,26.1,30.10,SSW,199,1.0,9.0,66,0.00,,,0.00,0.0,meteohub,2013-01-24 01:27:00,
2013-01-23 20:32:00,36.5,26.6,30.10,SSW,193,0.0,9.0,67,0.00,,,0.00,0.0,meteohub,2013-01-24 01:32:00,
2013-01-23 20:37:00,36.3,26.4,30.10,South,180,1.0,10.0,67,0.00,,,0.00,0.0,meteohub,2013-01-24 01:37:00,
2013-01-23 20:42:00,36.1,26.2,30.10,SW,218,0.0,10.0,67,0.00,,,0.00,0.0,meteohub,2013-01-24 01:42:00,
2013-01-23 20:47:00,36.0,26.1,30.10,WSW,250,0.0,5.0,67,0.00,,,0.00,0.0,meteohub,2013-01-24 01:47:00,
2013-01-23 20:52:00,36.0,26.1,30.10,SE,126,0.0,6.0,67,0.00,,,0.00,0.0,meteohub,2013-01-24 01:52:00,
2013-01-23 20:57:00,36.0,26.1,30.10,WSW,258,1.0,6.0,67,0.00,,,0.00,0.0,meteohub,2013-01-24 01:57:00,
2013-01-23 21:02:00,36.0,26.1,30.10,SE,138,0.0,6.0,67,0.00,,,0.00,0.0,meteohub,2013-01-24 02:02:00,
2013-01-23 21:07:00,36.0,25.7,30.10,ESE,117,2.0,5.0,66,0.00,,,0.00,0.0,meteohub,2013-01-24 02:07:00,
2013-01-23 21:12:00,36.1,25.9,30.09,SSE,163,0.0,5.0,66,0.00,,,0.00,0.0,meteohub,2013-01-24 02:12:00,
2013-01-23 21:17:00,36.1,25.5,30.09,SSW,202,2.0,8.0,65,0.00,,,0.00,0.0,meteohub,2013-01-24 02:17:00,
2013-01-23 21:22:00,36.1,25.5,30.09,SW,214,2.0,8.0,65,0.00,,,0.00,0.0,meteohub,2013-01-24 02:22:00,
2013-01-23 21:27:00,36.1,25.5,30.08,SE,134,8.0,8.0,65,0.00,,,0.00,0.0,meteohub,2013-01-24 02:27:00,
2013-01-23 21:32:00,36.1,25.5,30.08,WNW,289,0.0,8.0,65,0.00,,,0.00,0.0,meteohub,2013-01-24 02:32:00,
2013-01-23 21:37:00,36.0,25.3,30.08,South,187,4.0,8.0,65,0.00,,,0.00,0.0,meteohub,2013-01-24 02:37:00,
2013-01-23 21:42:00,36.0,25.3,30.09,South,173,1.0,8.0,65,0.00,,,0.00,0.0,meteohub,2013-01-24 02:42:00,
2013-01-23 21:47:00,36.0,25.0,30.09,SW,218,2.0,8.0,64,0.00,,,0.00,0.0,meteohub,2013-01-24 02:47:00,
2013-01-23 21:52:00,36.0,25.0,30.08,NNE,17,1.0,8.0,64,0.00,,,0.00,0.0,meteohub,2013-01-24 02:52:00,
2013-01-23 21:57:00,36.0,25.0,30.08,NE,37,10.0,10.0,64,0.00,,,0.00,0.0,meteohub,2013-01-24 02:57:00,
2013-01-23 22:02:00,36.1,24.8,30.08,South,190,1.0,12.0,63,0.00,,,0.00,0.0,meteohub,2013-01-24 03:02:00,
2013-01-23 22:07:00,36.3,25.0,30.08,South,180,1.0,12.0,63,0.00,,,0.00,0.0,meteohub,2013-01-24 03:07:00,
2013-01-23 22:12:00,36.5,24.8,30.08,SSW,211,1.0,12.0,62,0.00,,,0.00,0.0,meteohub,2013-01-24 03:12:00,
2013-01-23 22:17:00,36.7,25.0,30.07,SSW,193,3.0,9.0,62,0.00,,,0.00,0.0,meteohub,2013-01-24 03:17:00,
2013-01-23 22:22:00,36.5,24.8,30.07,South,187,2.0,9.0,62,0.00,,,0.00,0.0,meteohub,2013-01-24 03:22:00,
2013-01-23 22:27:00,36.7,25.0,30.06,South,190,4.0,8.0,62,0.00,,,0.00,0.0,meteohub,2013-01-24 03:27:00,
2013-01-23 22:32:00,36.7,24.4,30.07,SE,134,7.0,9.0,61,0.00,,,0.00,0.0,meteohub,2013-01-24 03:32:00,
2013-01-23 22:37:00,36.9,24.6,30.06,SSE,163,7.0,12.0,61,0.00,,,0.00,0.0,meteohub,2013-01-24 03:37:00,
2013-01-23 22:42:00,37.0,24.8,30.06,South,181,3.0,12.0,61,0.00,,,0.00,0.0,meteohub,2013-01-24 03:42:00,
2013-01-23 22:47:00,36.9,24.6,30.06,SSW,194,4.0,12.0,61,0.00,,,0.00,0.0,meteohub,2013-01-24 03:47:00,
2013-01-23 22:52:00,36.9,25.0,30.06,South,178,5.0,13.0,62,0.00,,,0.00,0.0,meteohub,2013-01-24 03:52:00,
2013-01-23 22:57:00,36.9,25.0,30.06,SW,230,3.0,13.0,62,0.00,,,0.00,0.0,meteohub,2013-01-24 03:57:00,
2013-01-23 23:02:00,37.0,25.2,30.06,SSE,159,4.0,12.0,62,0.00,,,0.00,0.0,meteohub,2013-01-24 04:02:00,
2013-01-23 23:07:00,37.0,25.2,30.06,South,180,6.0,13.0,62,0.00,,,0.00,0.0,meteohub,2013-01-24 04:07:00,
2013-01-23 23:12:00,37.0,25.2,30.05,South,190,2.0,13.0,62,0.00,,,0.00,0.0,meteohub,2013-01-24 04:12:00,
2013-01-23 23:17:00,37.2,25.3,30.05,South,184,2.0,13.0,62,0.00,,,0.00,0.0,meteohub,2013-01-24 04:17:00,
2013-01-23 23:22:00,37.0,25.7,30.05,WNW,286,3.0,9.0,63,0.00,,,0.00,0.0,meteohub,2013-01-24 04:22:00,
2013-01-23 23:27:00,36.9,25.5,30.04,SSE,151,6.0,8.0,63,0.00,,,0.00,0.0,meteohub,2013-01-24 04:27:00,
2013-01-23 23:32:00,36.9,25.9,30.04,SSE,148,5.0,13.0,64,0.00,,,0.00,0.0,meteohub,2013-01-24 04:32:00,
2013-01-23 23:39:00,37.0,26.1,30.04,SE,137,4.0,13.0,64,0.00,,,0.00,0.0,meteohub,2013-01-24 04:39:00,
2013-01-23 23:45:00,36.9,25.9,30.05,SW,215,4.0,13.0,64,0.00,,,0.00,0.0,meteohub,2013-01-24 04:45:00,
2013-01-23 23:51:00,36.7,26.1,30.05,SSW,199,1.0,14.0,65,0.00,,,0.00,0.0,meteohub,2013-01-24 04:51:00,
2013-01-23 23:57:00,36.7,26.1,30.05,SSE,147,8.0,16.0,65,0.00,,,0.00,0.0,meteohub,2013-01-24 04:57:00,